Time;durP1;ratioP1;P1;durP2;ratioP2;P2;SDS_P1;SDS_P2;PMS_P1;PMS_P2;Temp;Humidity;BMP_temperature;BMP_pressure;BME280_temperature;BME280_humidity;BME280_pressure;Samples;Min_cycle;Max_cycle;Signal;HPM_P1;HPM_P2
2021/11/27 00:01:34;;;;;;;6.65;1.90;;;;;;;3.19;100.00;98539.19;5030845;28;20051;-79
2021/11/27 00:04:00;;;;;;;4.88;1.65;;;;;;;3.19;100.00;98522.72;5031141;28;20033;-79
2021/11/27 00:06:26;;;;;;;13.80;2.13;;;;;;;3.18;100.00;98520.97;5029130;28;20025;-79
2021/11/27 00:08:52;;;;;;;4.70;1.30;;;;;;;3.16;100.00;98522.69;5028345;28;22105;-79
2021/11/27 00:11:19;;;;;;;6.75;1.75;;;;;;;3.17;100.00;98524.44;5015744;28;20037;-79
2021/11/27 00:13:45;;;;;;;7.55;1.90;;;;;;;3.18;100.00;98528.78;5028951;28;20389;-79
2021/11/27 00:16:10;;;;;;;9.60;1.65;;;;;;;3.19;100.00;98527.94;5033153;28;20040;-79
2021/11/27 00:18:36;;;;;;;10.50;2.00;;;;;;;3.19;100.00;98527.94;5034817;28;20079;-78
2021/11/27 00:21:07;;;;;;;10.45;2.25;;;;;;;3.22;100.00;98533.16;5029561;28;20080;-79
2021/11/27 00:23:35;;;;;;;9.82;2.13;;;;;;;3.24;100.00;98525.34;5032226;28;20038;-80
2021/11/27 00:26:02;;;;;;;11.68;2.15;;;;;;;3.25;100.00;98527.09;5033328;28;20045;-79
2021/11/27 00:28:28;;;;;;;9.38;2.30;;;;;;;3.24;100.00;98521.00;5027486;28;20033;-79
2021/11/27 00:30:57;;;;;;;3.10;1.40;;;;;;;3.24;100.00;98526.22;5032368;28;20037;-79
2021/11/27 00:33:23;;;;;;;9.02;1.77;;;;;;;3.25;100.00;98517.56;5033184;28;20026;-79
2021/11/27 00:35:49;;;;;;;15.50;1.58;;;;;;;3.26;100.00;98519.31;5035310;28;20027;-79
2021/11/27 00:38:14;;;;;;;7.63;2.00;;;;;;;3.27;100.00;98514.97;5030520;28;20033;-79
2021/11/27 00:40:41;;;;;;;9.00;1.92;;;;;;;3.23;100.00;98514.09;5036291;28;20748;-79
2021/11/27 00:43:09;;;;;;;7.18;2.35;;;;;;;3.21;100.00;98508.00;5028412;28;20133;-79
2021/11/27 00:45:36;;;;;;;5.93;1.60;;;;;;;3.20;100.00;98514.06;5036597;28;20032;-78
2021/11/27 00:48:02;;;;;;;7.57;1.40;;;;;;;3.20;100.00;98514.06;5030752;28;20026;-79
2021/11/27 00:50:32;;;;;;;12.23;1.40;;;;;;;3.20;100.00;98504.53;5038139;28;20052;-79
2021/11/27 00:53:03;;;;;;;7.30;1.25;;;;;;;3.19;100.00;98509.72;5034915;28;20086;-78
2021/11/27 00:55:31;;;;;;;10.57;1.45;;;;;;;3.19;100.00;98512.34;5036590;28;20032;-78
2021/11/27 00:57:56;;;;;;;3.95;0.93;;;;;;;3.19;100.00;98507.13;5035055;28;20025;-78
2021/11/27 01:00:26;;;;;;;6.13;0.73;;;;;;;3.19;100.00;98507.13;5032378;28;20535;-78
2021/11/27 01:02:52;;;;;;;13.10;1.83;;;;;;;3.15;100.00;98497.56;5031247;28;20513;-79
2021/11/27 01:05:19;;;;;;;4.95;1.00;;;;;;;3.13;100.00;98502.72;5019616;28;20127;-79
2021/11/27 01:07:45;;;;;;;5.95;1.55;;;;;;;3.11;100.00;98499.25;5042927;28;20034;-79
2021/11/27 01:10:17;;;;;;;8.50;0.90;;;;;;;3.11;100.00;98508.81;5036733;28;20052;-78
2021/11/27 01:12:43;;;;;;;7.75;1.27;;;;;;;3.11;100.00;98503.59;5036044;28;20461;-79
2021/11/27 01:15:11;;;;;;;4.25;0.93;;;;;;;3.11;100.00;98503.59;5029208;28;20105;-78
2021/11/27 01:17:38;;;;;;;1.40;0.75;;;;;;;3.10;100.00;98501.84;5039133;28;20079;-79
2021/11/27 01:20:09;;;;;;;5.88;0.93;;;;;;;3.09;100.00;98505.31;5038198;28;20037;-78
2021/11/27 01:22:35;;;;;;;8.65;1.10;;;;;;;3.08;100.00;98499.25;5030422;28;20050;-76
2021/11/27 01:25:01;;;;;;;7.60;1.23;;;;;;;3.02;100.00;98494.84;5036124;28;20389;-78
2021/11/27 01:27:27;;;;;;;5.25;0.93;;;;;;;3.02;100.00;98497.44;5033954;28;20116;-79
2021/11/27 01:29:52;;;;;;;5.70;1.00;;;;;;;3.02;100.00;98500.03;5032607;28;20056;-79
2021/11/27 01:32:18;;;;;;;2.22;1.00;;;;;;;2.99;100.00;98505.22;5041563;28;20509;-79
2021/11/27 01:34:45;;;;;;;8.13;1.08;;;;;;;2.98;100.00;98503.47;5034836;28;20021;-78
2021/11/27 01:37:11;;;;;;;6.55;1.05;;;;;;;2.98;100.00;98502.59;5041236;28;20083;-78
2021/11/27 01:39:38;;;;;;;9.00;1.38;;;;;;;2.95;100.00;98500.84;5038297;28;20025;-78
2021/11/27 01:42:04;;;;;;;5.82;0.80;;;;;;;2.93;100.00;98502.59;5038663;28;20029;-79
2021/11/27 01:44:30;;;;;;;2.67;1.27;;;;;;;2.93;100.00;98506.88;5033322;28;20033;-79
2021/11/27 01:46:55;;;;;;;2.28;1.00;;;;;;;2.94;100.00;98512.09;5033438;28;20033;-78
2021/11/27 01:49:21;;;;;;;2.95;1.30;;;;;;;2.92;100.00;98505.16;5035395;28;20117;-78
2021/11/27 01:51:47;;;;;;;6.35;0.90;;;;;;;2.92;100.00;98518.16;5037792;28;20131;-79
2021/11/27 01:54:14;;;;;;;4.22;1.10;;;;;;;2.88;100.00;98514.66;5036110;28;20028;-78
2021/11/27 01:56:49;;;;;;;5.55;1.10;;;;;;;2.86;100.00;98514.63;5043700;28;20119;-77
2021/11/27 01:59:16;;;;;;;6.85;1.35;;;;;;;2.86;100.00;98517.22;5031362;28;20029;-77
2021/11/27 02:01:43;;;;;;;4.93;1.25;;;;;;;2.83;100.00;98530.16;5030295;28;20172;-78
2021/11/27 02:04:10;;;;;;;6.85;1.42;;;;;;;2.85;100.00;98518.09;5035612;28;20112;-78
2021/11/27 02:06:40;;;;;;;6.03;1.30;;;;;;;2.85;100.00;98522.41;5039760;28;20104;-76
2021/11/27 02:09:12;;;;;;;5.72;1.38;;;;;;;2.85;100.00;98522.41;5035386;28;20064;-78
2021/11/27 02:11:38;;;;;;;6.28;1.35;;;;;;;2.82;100.00;98522.38;5034514;28;20041;-79
2021/11/27 02:14:06;;;;;;;4.32;1.15;;;;;;;2.84;100.00;98526.72;5034035;28;20033;-78
2021/11/27 02:16:32;;;;;;;9.80;1.25;;;;;;;2.82;100.00;98522.38;5032924;28;20044;-79
2021/11/27 02:18:58;;;;;;;10.60;1.38;;;;;;;2.81;100.00;98525.84;5034037;28;20045;-79
2021/11/27 02:21:24;;;;;;;7.72;1.17;;;;;;;2.82;100.00;98524.97;5033153;28;20028;-78
2021/11/27 02:23:51;;;;;;;5.82;1.15;;;;;;;2.79;100.00;98525.78;5035007;28;20091;-79
2021/11/27 02:26:20;;;;;;;4.80;1.25;;;;;;;2.77;100.00;98540.50;5035276;28;20530;-79
2021/11/27 02:28:55;;;;;;;4.90;1.00;;;;;;;2.77;100.00;98542.22;5034734;28;20042;-78
2021/11/27 02:31:22;;;;;;;8.00;1.25;;;;;;;2.73;100.00;98543.03;5034964;28;20089;-78
2021/11/27 02:33:48;;;;;;;4.55;1.05;;;;;;;2.71;100.00;98545.63;5034614;28;20049;-78
2021/11/27 02:36:13;;;;;;;10.80;1.95;;;;;;;2.72;100.00;98546.50;5036405;28;20484;-78
2021/11/27 02:38:40;;;;;;;6.95;1.60;;;;;;;2.72;100.00;98544.78;5030562;28;20082;-78
2021/11/27 02:41:08;;;;;;;4.95;1.50;;;;;;;2.72;100.00;98549.13;5035620;28;20031;-78
2021/11/27 02:43:33;;;;;;;9.18;1.30;;;;;;;2.70;100.00;98547.38;5032360;28;20041;-78
2021/11/27 02:45:59;;;;;;;8.38;2.05;;;;;;;2.71;100.00;98535.22;5032221;28;20078;-79
2021/11/27 02:48:25;;;;;;;4.70;1.50;;;;;;;2.71;100.00;98530.03;5034525;28;20037;-78
2021/11/27 02:50:50;;;;;;;3.40;1.58;;;;;;;2.69;100.00;98535.22;5031407;28;20029;-78
2021/11/27 02:53:16;;;;;;;8.23;1.95;;;;;;;2.68;100.00;98543.84;5034305;28;20373;-79
2021/11/27 02:55:46;;;;;;;1.90;1.55;;;;;;;2.69;100.00;98545.63;5038422;28;20029;-77
2021/11/27 02:58:13;;;;;;;5.32;1.90;;;;;;;2.67;100.00;98551.63;5035147;28;20099;-78
2021/11/27 03:00:39;;;;;;;3.42;1.83;;;;;;;2.65;100.00;98546.44;5031518;28;20025;-78
2021/11/27 03:03:05;;;;;;;3.85;1.80;;;;;;;2.65;100.00;98548.16;5030906;28;20041;-78
2021/11/27 03:05:30;;;;;;;8.57;1.92;;;;;;;2.65;100.00;98553.38;5036472;28;20037;-78
2021/11/27 03:07:56;;;;;;;13.35;2.92;;;;;;;2.63;100.00;98558.53;5038269;28;20491;-78
2021/11/27 03:10:22;;;;;;;6.32;1.80;;;;;;;2.64;100.00;98555.06;5031047;28;20044;-78
2021/11/27 03:12:48;;;;;;;8.93;2.20;;;;;;;2.63;100.00;98550.75;5030784;28;20073;-79
2021/11/27 03:15:16;;;;;;;4.90;1.98;;;;;;;2.65;100.00;98556.81;5038734;28;20500;-78
2021/11/27 03:17:43;;;;;;;5.82;2.10;;;;;;;2.67;100.00;98559.44;5033602;28;20032;-78
2021/11/27 03:20:10;;;;;;;7.20;2.38;;;;;;;2.68;100.00;98568.97;5031845;28;20025;-79
2021/11/27 03:22:36;;;;;;;4.78;2.13;;;;;;;2.67;100.00;98560.31;5034288;28;20142;-79
2021/11/27 03:25:02;;;;;;;4.32;2.10;;;;;;;2.67;100.00;98568.09;5036258;28;20453;-79
2021/11/27 03:27:28;;;;;;;4.82;2.08;;;;;;;2.68;100.00;98564.63;5032822;28;20104;-79
2021/11/27 03:29:54;;;;;;;10.00;1.90;;;;;;;2.67;100.00;98569.81;5025669;28;20037;-79
2021/11/27 03:32:19;;;;;;;5.35;1.90;;;;;;;2.68;100.00;98571.56;5034007;28;20056;-78
2021/11/27 03:34:47;;;;;;;11.02;2.67;;;;;;;2.67;100.00;98575.91;5031701;28;20033;-78
2021/11/27 03:37:15;;;;;;;7.28;2.35;;;;;;;2.68;100.00;98572.41;5037856;28;20029;-79
2021/11/27 03:39:41;;;;;;;4.68;1.92;;;;;;;2.71;100.00;98581.97;5037628;28;20036;-79
2021/11/27 03:42:10;;;;;;;8.95;1.80;;;;;;;2.69;100.00;98579.38;5044916;28;20090;-79
2021/11/27 03:44:36;;;;;;;6.43;2.70;;;;;;;2.69;100.00;98592.34;5034310;28;20095;-79
2021/11/27 03:47:03;;;;;;;12.55;2.58;;;;;;;2.70;100.00;98588.91;5032705;28;20034;-79
2021/11/27 03:49:30;;;;;;;6.72;3.38;;;;;;;2.70;100.00;98588.91;5025397;28;20056;-79
2021/11/27 03:51:56;;;;;;;6.47;2.75;;;;;;;2.69;100.00;98589.75;5034860;28;20382;-79
2021/11/27 03:54:22;;;;;;;6.50;2.65;;;;;;;2.68;100.00;98600.13;5035645;28;20413;-78
2021/11/27 03:56:49;;;;;;;11.32;2.95;;;;;;;2.69;100.00;98601.88;5035558;28;20086;-78
2021/11/27 03:59:14;;;;;;;8.68;2.78;;;;;;;2.68;100.00;98600.13;5035405;28;20033;-78
2021/11/27 04:01:40;;;;;;;7.28;2.58;;;;;;;2.66;100.00;98596.66;5032100;28;20609;-78
2021/11/27 04:04:07;;;;;;;6.75;2.65;;;;;;;2.65;100.00;98598.38;5040061;28;20033;-78
2021/11/27 04:06:35;;;;;;;9.35;2.92;;;;;;;2.65;100.00;98600.97;5043396;28;20040;-78
2021/11/27 04:09:04;;;;;;;9.27;3.78;;;;;;;2.65;100.00;98607.88;5036101;28;20029;-78
2021/11/27 04:11:30;;;;;;;10.25;3.65;;;;;;;2.67;100.00;98611.34;5032523;28;20124;-78
2021/11/27 04:13:55;;;;;;;10.95;4.30;;;;;;;2.67;100.00;98613.97;5034016;28;20155;-79
2021/11/27 04:16:21;;;;;;;12.13;4.57;;;;;;;2.68;100.00;98618.31;5037552;28;20045;-79
2021/11/27 04:18:47;;;;;;;18.60;4.55;;;;;;;2.68;100.00;98616.56;5036710;28;20034;-78
2021/11/27 04:21:14;;;;;;;13.80;4.50;;;;;;;2.68;100.00;98623.50;5038824;28;20064;-78
2021/11/27 04:23:40;;;;;;;16.88;5.30;;;;;;;2.68;100.00;98618.31;5034744;28;20076;-78
2021/11/27 04:26:06;;;;;;;11.73;4.55;;;;;;;2.67;100.00;98622.63;5033937;28;20473;-78
2021/11/27 04:28:32;;;;;;;14.20;5.82;;;;;;;2.68;100.00;98623.50;5036955;28;20036;-78
2021/11/27 04:30:58;;;;;;;12.75;5.38;;;;;;;2.67;100.00;98627.84;5035841;28;20473;-78
2021/11/27 04:33:24;;;;;;;17.65;5.95;;;;;;;2.67;100.00;98622.63;5036105;28;20028;-79
2021/11/27 04:35:49;;;;;;;10.65;5.72;;;;;;;2.68;100.00;98631.28;5042303;28;20064;-79
2021/11/27 04:38:15;;;;;;;11.23;4.60;;;;;;;2.68;100.00;98634.75;5041695;28;20064;-79
2021/11/27 04:40:41;;;;;;;16.23;4.50;;;;;;;2.68;100.00;98639.94;5040312;28;20018;-77
2021/11/27 04:43:06;;;;;;;14.27;5.00;;;;;;;2.68;100.00;98634.75;5034949;28;20077;-79
2021/11/27 04:45:33;;;;;;;13.30;5.03;;;;;;;2.69;100.00;98639.09;5040517;28;20033;-77
2021/11/27 04:47:59;;;;;;;19.33;4.85;;;;;;;2.69;100.00;98644.28;5035723;28;20075;-78
2021/11/27 04:50:27;;;;;;;15.43;4.78;;;;;;;2.69;100.00;98651.22;5038362;28;20061;-78
2021/11/27 04:52:53;;;;;;;14.32;4.45;;;;;;;2.69;100.00;98654.66;5035366;28;20040;-77
2021/11/27 04:55:19;;;;;;;13.25;4.20;;;;;;;2.69;100.00;98657.25;5031387;28;20025;-78
2021/11/27 04:57:45;;;;;;;10.40;4.70;;;;;;;2.69;100.00;98662.47;5038075;28;20032;-77
2021/11/27 05:00:21;;;;;;;13.63;4.43;;;;;;;2.69;100.00;98670.25;5037380;28;20099;-78
2021/11/27 05:02:46;;;;;;;12.38;4.18;;;;;;;2.70;100.00;98674.59;5033082;28;20056;-78
2021/11/27 05:05:12;;;;;;;15.32;4.65;;;;;;;2.70;100.00;98669.41;5040376;28;20069;-77
2021/11/27 05:07:38;;;;;;;10.43;4.40;;;;;;;2.70;100.00;98671.16;5031680;28;20029;-77
2021/11/27 05:10:04;;;;;;;10.40;4.15;;;;;;;2.69;100.00;98672.84;5035894;28;20386;-78
2021/11/27 05:12:29;;;;;;;14.20;4.55;;;;;;;2.70;100.00;98674.59;5035500;28;20104;-77
2021/11/27 05:14:55;;;;;;;14.15;5.20;;;;;;;2.72;100.00;98687.59;5032681;28;20121;-78
2021/11/27 05:17:21;;;;;;;16.02;6.47;;;;;;;2.71;100.00;98675.47;5036300;28;20041;-79
2021/11/27 05:19:46;;;;;;;15.13;5.10;;;;;;;2.68;100.00;98684.09;5034723;28;20123;-79
2021/11/27 05:22:12;;;;;;;20.77;4.70;;;;;;;2.66;100.00;98688.41;5033679;28;20071;-78
2021/11/27 05:24:43;;;;;;;18.00;5.55;;;;;;;2.66;100.00;98685.81;5033243;28;20025;-78
2021/11/27 05:27:14;;;;;;;14.88;5.75;;;;;;;2.67;100.00;98691.84;5034085;28;20029;-78
2021/11/27 05:29:41;;;;;;;17.17;5.32;;;;;;;2.69;100.00;98697.97;5023178;28;20507;-78
2021/11/27 05:32:09;;;;;;;12.90;5.47;;;;;;;2.69;100.00;98703.16;5035350;28;20033;-78
2021/11/27 05:34:35;;;;;;;13.10;5.65;;;;;;;2.68;100.00;98711.78;5039973;28;20025;-78
2021/11/27 05:37:04;;;;;;;21.73;7.45;;;;;;;2.67;100.00;98716.13;5033784;28;20032;-78
2021/11/27 05:39:30;;;;;;;13.65;6.47;;;;;;;2.67;100.00;98716.13;5033750;28;20025;-78
2021/11/27 05:41:57;;;;;;;14.90;6.72;;;;;;;2.67;100.00;98716.13;5035403;28;20096;-78
2021/11/27 05:44:22;;;;;;;23.00;6.25;;;;;;;2.69;100.00;98719.59;5038360;28;20241;-78
2021/11/27 05:46:48;;;;;;;17.15;6.10;;;;;;;2.70;100.00;98716.16;5036686;28;20126;-76
2021/11/27 05:49:14;;;;;;;24.38;7.03;;;;;;;2.69;100.00;98724.78;5033391;28;20154;-77
2021/11/27 05:51:40;;;;;;;19.83;7.72;;;;;;;2.73;100.00;98727.41;5033746;28;20104;-78
2021/11/27 05:54:06;;;;;;;22.83;7.35;;;;;;;2.73;100.00;98730.00;5036003;28;20051;-78
2021/11/27 05:56:31;;;;;;;17.70;6.70;;;;;;;2.74;100.00;98743.03;5036790;28;20117;-78
2021/11/27 05:58:57;;;;;;;22.23;7.95;;;;;;;2.74;100.00;98747.34;5031408;28;20515;-78
2021/11/27 06:01:23;;;;;;;33.45;9.68;;;;;;;2.74;100.00;98742.16;5033048;28;20040;-78
2021/11/27 06:03:50;;;;;;;31.00;9.93;;;;;;;2.73;100.00;98749.09;5034744;28;20028;-79
2021/11/27 06:06:16;;;;;;;33.63;8.95;;;;;;;2.75;100.00;98754.28;5033409;28;20477;-79
2021/11/27 06:08:41;;;;;;;26.05;9.75;;;;;;;2.75;100.00;98754.28;5037604;28;20040;-77
2021/11/27 06:11:07;;;;;;;34.15;10.52;;;;;;;2.77;100.00;98761.25;5031963;28;20029;-78
2021/11/27 06:13:33;;;;;;;33.35;11.32;;;;;;;2.78;100.00;98772.50;5033604;28;20023;-79
2021/11/27 06:15:59;;;;;;;43.03;11.75;;;;;;;2.79;100.00;98769.06;5037263;28;20473;-78
2021/11/27 06:18:25;;;;;;;36.65;11.77;;;;;;;2.79;100.00;98769.06;5021841;28;20088;-78
2021/11/27 06:20:50;;;;;;;39.92;14.07;;;;;;;2.82;100.00;98777.78;5027415;28;20034;-78
2021/11/27 06:23:15;;;;;;;45.20;14.65;;;;;;;2.82;100.00;98777.78;5033146;28;20045;-78
2021/11/27 06:25:41;;;;;;;39.13;13.85;;;;;;;2.83;100.00;98778.66;5035620;28;20119;-78
2021/11/27 06:28:08;;;;;;;42.10;14.07;;;;;;;2.82;100.00;98782.09;5024579;28;20059;-78
2021/11/27 06:30:34;;;;;;;59.83;18.80;;;;;;;2.82;100.00;98782.09;5033184;28;20033;-79
2021/11/27 06:33:00;;;;;;;55.03;19.42;;;;;;;2.84;100.00;98790.78;5029402;28;20045;-79
2021/11/27 06:35:27;;;;;;;52.67;19.55;;;;;;;2.84;100.00;98790.78;5033267;28;20076;-78
2021/11/27 06:37:52;;;;;;;51.35;19.38;;;;;;;2.84;100.00;98793.38;5026647;28;20485;-78
2021/11/27 06:40:18;;;;;;;55.63;20.65;;;;;;;2.82;100.00;98793.38;5029746;28;20028;-78
2021/11/27 06:42:44;;;;;;;54.90;21.48;;;;;;;2.82;100.00;98802.88;5029243;28;20032;-78
2021/11/27 06:45:09;;;;;;;49.20;19.38;;;;;;;2.82;100.00;98808.06;5031402;28;20030;-78
2021/11/27 06:47:35;;;;;;;58.50;20.77;;;;;;;2.82;100.00;98813.25;5024073;28;20389;-78
2021/11/27 06:50:00;;;;;;;57.60;21.17;;;;;;;2.80;100.00;98820.16;5033518;28;20049;-79
2021/11/27 06:52:26;;;;;;;57.08;21.70;;;;;;;2.79;100.00;98834.00;5032540;28;20033;-79
2021/11/27 06:54:52;;;;;;;60.42;20.90;;;;;;;2.78;100.00;98837.44;5022839;28;20017;-78
2021/11/27 06:57:17;;;;;;;69.63;23.08;;;;;;;2.79;100.00;98840.06;5035377;28;20036;-78
2021/11/27 06:59:43;;;;;;;65.57;23.48;;;;;;;2.79;100.00;98850.44;5021589;28;20026;-78
2021/11/27 07:02:09;;;;;;;71.00;24.65;;;;;;;2.79;100.00;98849.59;5021816;28;20107;-77
2021/11/27 07:04:35;;;;;;;70.68;23.70;;;;;;;2.77;100.00;98851.25;5030926;28;20540;-78
2021/11/27 07:07:00;;;;;;;69.70;24.40;;;;;;;2.77;100.00;98846.97;5033906;28;20065;-78
2021/11/27 07:09:27;;;;;;;74.10;24.52;;;;;;;2.76;100.00;98847.81;5027085;28;20026;-78
2021/11/27 07:11:53;;;;;;;73.15;23.77;;;;;;;2.78;100.00;98850.41;5027081;28;20026;-79
2021/11/27 07:14:18;;;;;;;88.15;26.13;;;;;;;2.80;100.00;98859.13;5031912;28;20508;-79
2021/11/27 07:16:44;;;;;;;80.30;25.40;;;;;;;2.79;100.00;98857.38;5028130;28;20477;-78
2021/11/27 07:19:09;;;;;;;79.90;25.42;;;;;;;2.78;100.00;98866.91;5024330;28;20042;-79
2021/11/27 07:21:35;;;;;;;76.40;25.38;;;;;;;2.80;100.00;98866.91;5029051;28;20083;-79
2021/11/27 07:24:01;;;;;;;83.82;27.77;;;;;;;2.81;100.00;98868.69;5033571;28;20455;-79
2021/11/27 07:26:27;;;;;;;84.50;27.70;;;;;;;2.80;100.00;98859.13;5019546;28;20509;-76
2021/11/27 07:28:54;;;;;;;78.60;27.10;;;;;;;2.80;100.00;98870.38;5030042;28;20038;-77
2021/11/27 07:31:19;;;;;;;75.10;26.25;;;;;;;2.79;100.00;98875.56;5020223;28;20492;-78
2021/11/27 07:33:46;;;;;;;79.95;26.17;;;;;;;2.80;100.00;98882.50;5026956;28;20033;-78
2021/11/27 07:36:11;;;;;;;87.00;29.27;;;;;;;2.79;100.00;98886.81;5028785;28;20026;-78
2021/11/27 07:38:37;;;;;;;90.50;26.90;;;;;;;2.80;100.00;98893.75;5030918;28;20033;-78
2021/11/27 07:41:04;;;;;;;88.35;27.98;;;;;;;2.80;100.00;98893.75;5027795;28;20036;-78
2021/11/27 07:43:30;;;;;;;76.75;26.98;;;;;;;2.81;100.00;98905.03;5033041;28;20453;-79
2021/11/27 07:45:56;;;;;;;78.78;27.40;;;;;;;2.80;100.00;98898.94;5032785;28;20032;-79
2021/11/27 07:48:23;;;;;;;80.38;27.13;;;;;;;2.81;100.00;98905.03;5033841;28;20033;-78
2021/11/27 07:50:50;;;;;;;78.63;28.52;;;;;;;2.80;100.00;98914.53;5027469;28;20481;-79
2021/11/27 07:53:15;;;;;;;84.00;26.38;;;;;;;2.81;100.00;98925.81;5029692;28;20040;-79
2021/11/27 07:55:41;;;;;;;83.40;27.65;;;;;;;2.83;100.00;98924.97;5028410;28;20021;-79
2021/11/27 07:58:07;;;;;;;99.00;30.13;;;;;;;2.85;100.00;98932.81;5030425;28;20047;-78
2021/11/27 08:00:33;;;;;;;92.75;30.25;;;;;;;2.86;100.00;98934.53;5028117;28;20343;-78
2021/11/27 08:02:59;;;;;;;93.05;29.80;;;;;;;2.87;100.00;98951.88;5023087;28;20030;-78
2021/11/27 08:05:24;;;;;;;91.13;27.90;;;;;;;2.88;100.00;98943.25;5030627;28;20036;-78
2021/11/27 08:07:50;;;;;;;92.82;29.27;;;;;;;2.92;100.00;98955.44;5029468;28;20381;-78
2021/11/27 08:10:16;;;;;;;91.78;29.67;;;;;;;2.93;100.00;98953.69;5033593;28;20079;-79
2021/11/27 08:12:41;;;;;;;90.50;28.63;;;;;;;2.94;100.00;98951.13;5030288;28;20610;-77
2021/11/27 08:15:10;;;;;;;89.28;29.45;;;;;;;2.96;100.00;98953.78;5028194;28;20478;-77
2021/11/27 08:17:36;;;;;;;90.75;31.17;;;;;;;2.98;100.00;98954.66;5027138;28;20029;-77
2021/11/27 08:20:07;;;;;;;93.20;31.17;;;;;;;3.00;100.00;98963.38;5020467;28;20076;-78
2021/11/27 08:22:33;;;;;;;114.28;31.85;;;;;;;3.00;100.00;98961.63;5022715;28;20089;-78
2021/11/27 08:24:59;;;;;;;92.22;31.77;;;;;;;3.00;100.00;98969.41;5027155;28;20017;-78
2021/11/27 08:27:27;;;;;;;96.13;32.35;;;;;;;3.01;100.00;98965.09;5026777;28;20058;-79
2021/11/27 08:29:54;;;;;;;92.32;31.02;;;;;;;3.01;100.00;98968.59;5026650;28;20041;-77
2021/11/27 08:32:21;;;;;;;99.78;32.13;;;;;;;3.06;100.00;98976.44;5017975;28;20037;-78
2021/11/27 08:34:47;;;;;;;96.95;31.45;;;;;;;3.04;100.00;98975.56;5014746;28;20026;-79
2021/11/27 08:37:15;;;;;;;92.50;31.42;;;;;;;3.08;100.00;98981.66;5027889;28;20053;-78
2021/11/27 08:39:40;;;;;;;91.80;32.35;;;;;;;3.09;100.00;98983.41;5032421;28;20112;-78
2021/11/27 08:42:06;;;;;;;110.55;34.70;;;;;;;3.10;100.00;98990.38;5031657;28;20079;-78
2021/11/27 08:44:32;;;;;;;99.05;32.55;;;;;;;3.12;100.00;98999.03;5027351;28;20030;-77
2021/11/27 08:46:58;;;;;;;108.40;34.83;;;;;;;3.13;100.00;99000.81;5029594;28;20041;-78
2021/11/27 08:49:23;;;;;;;100.93;33.85;;;;;;;3.13;100.00;99001.66;5026917;28;20057;-78
2021/11/27 08:51:55;;;;;;;91.40;31.65;;;;;;;3.16;100.00;99008.66;5030634;28;20486;-78
2021/11/27 08:54:22;;;;;;;93.88;31.80;;;;;;;3.16;100.00;99013.84;5032508;28;20339;-78
2021/11/27 08:56:48;;;;;;;100.82;34.60;;;;;;;3.15;100.00;99004.31;5027960;28;20046;-77
2021/11/27 08:59:13;;;;;;;94.80;32.92;;;;;;;3.17;100.00;99013.00;5024681;28;20029;-78
2021/11/27 09:01:41;;;;;;;96.70;34.78;;;;;;;3.17;100.00;99019.09;5026761;28;20030;-77
2021/11/27 09:04:06;;;;;;;97.38;32.50;;;;;;;3.18;100.00;99017.34;5028458;28;20037;-76
2021/11/27 09:06:32;;;;;;;89.30;30.48;;;;;;;3.18;100.00;99013.03;5029688;28;20366;-78
2021/11/27 09:08:59;;;;;;;95.55;31.92;;;;;;;3.19;100.00;99013.91;5025853;28;20111;-78
2021/11/27 09:11:28;;;;;;;83.47;29.67;;;;;;;3.22;100.00;99011.34;5004037;28;20072;-77
2021/11/27 09:13:54;;;;;;;84.32;30.23;;;;;;;3.14;100.00;99007.75;5030172;28;20026;-77
2021/11/27 09:16:20;;;;;;;88.18;32.60;;;;;;;3.15;100.00;99014.72;5030063;28;20126;-78
2021/11/27 09:18:45;;;;;;;80.28;29.23;;;;;;;3.14;100.00;99015.56;5030654;28;20029;-78
2021/11/27 09:21:21;;;;;;;99.82;31.17;;;;;;;3.16;100.00;99027.72;5021152;28;20402;-79
2021/11/27 09:23:46;;;;;;;73.88;29.55;;;;;;;3.22;100.00;99023.50;5033477;28;20376;-79
2021/11/27 09:26:12;;;;;;;83.13;30.70;;;;;;;3.17;100.00;99026.88;5030974;28;20060;-78
2021/11/27 09:28:38;;;;;;;81.30;29.65;;;;;;;3.22;100.00;99026.94;5029643;28;20063;-78
2021/11/27 09:31:04;;;;;;;79.45;28.02;;;;;;;3.23;100.00;99023.50;5036853;28;20029;-78
2021/11/27 09:33:31;;;;;;;78.57;27.27;;;;;;;3.31;100.00;99032.31;5035800;28;20045;-78
2021/11/27 09:36:01;;;;;;;65.63;25.02;;;;;;;3.29;100.00;99034.00;5033109;28;20159;-80
2021/11/27 09:38:27;;;;;;;56.35;22.52;;;;;;;3.24;100.00;99030.44;5037197;28;20060;-80
2021/11/27 09:41:09;;;;;;;71.30;23.27;;;;;;;3.24;100.00;99030.44;5037407;28;20029;-78
2021/11/27 09:43:36;;;;;;;51.78;20.02;;;;;;;3.19;100.00;99027.78;5032293;28;20038;-79
2021/11/27 09:46:02;;;;;;;50.05;19.85;;;;;;;3.20;100.00;99033.84;5030882;28;20025;-79
2021/11/27 09:48:30;;;;;;;64.88;21.50;;;;;;;3.18;100.00;99035.53;5027603;28;20369;-78
2021/11/27 09:50:55;;;;;;;46.20;19.48;;;;;;;3.19;100.00;99042.50;5028607;28;20088;-79
2021/11/27 09:53:21;;;;;;;48.92;20.63;;;;;;;3.23;100.00;99044.31;5027937;28;20057;-79
2021/11/27 09:55:49;;;;;;;46.05;19.55;;;;;;;3.26;100.00;99048.69;5022117;28;20030;-79
2021/11/27 09:58:15;;;;;;;49.75;19.42;;;;;;;3.31;100.00;99045.31;5022158;28;20025;-79
2021/11/27 10:00:41;;;;;;;46.63;17.05;;;;;;;3.23;100.00;99046.91;5023160;28;20035;-80
2021/11/27 10:03:08;;;;;;;49.30;18.10;;;;;;;3.24;100.00;99035.63;5032910;28;20436;-79
2021/11/27 10:05:35;;;;;;;42.83;16.10;;;;;;;3.22;100.00;99032.16;5034092;28;20029;-79
2021/11/27 10:08:01;;;;;;;54.30;18.15;;;;;;;3.27;100.00;99029.63;5028015;28;20827;-79
2021/11/27 10:10:26;;;;;;;49.35;18.02;;;;;;;3.33;100.00;99032.34;5028059;28;20033;-80
2021/11/27 10:12:53;;;;;;;49.88;18.27;;;;;;;3.43;100.00;99026.44;5030962;28;20104;-79
2021/11/27 10:15:19;;;;;;;43.67;20.08;;;;;;;3.43;100.00;99020.34;5013505;28;20358;-78
2021/11/27 10:17:45;;;;;;;57.80;19.67;;;;;;;3.52;100.00;99028.28;5022465;28;20051;-79
2021/11/27 10:20:11;;;;;;;51.95;18.58;;;;;;;3.48;100.00;99029.09;5024977;28;20358;-79
2021/11/27 10:22:46;;;;;;;39.60;19.88;;;;;;;3.58;100.00;99031.00;5027920;28;20374;-79
2021/11/27 10:25:30;;;;;;;40.13;18.60;;;;;;;3.72;100.00;99034.66;5026625;28;20480;-81
2021/11/27 10:28:07;;;;;;;;;;;;;;;3.89;100.00;99031.44;5033518;28;20025;-80
2021/11/27 10:30:55;;;;;;;50.95;18.48;;;;;;;4.02;100.00;99030.75;5030271;28;19913;-80
2021/11/27 10:33:21;;;;;;;52.13;19.42;;;;;;;4.15;100.00;99036.13;5036225;28;20021;-80
2021/11/27 10:36:02;;;;;;;45.53;18.52;;;;;;;4.29;100.00;99026.75;5024370;28;20049;-79
2021/11/27 10:38:51;;;;;;;50.50;20.00;;;;;;;4.26;100.00;99031.03;5024253;28;20051;-79
2021/11/27 10:41:18;;;;;;;34.83;15.18;;;;;;;4.36;100.00;99028.59;5030897;28;20481;-78
2021/11/27 10:44:05;;;;;;;38.88;15.88;;;;;;;4.30;100.00;99036.34;5024948;28;20030;-79
2021/11/27 10:46:34;;;;;;;34.00;14.48;;;;;;;4.14;100.00;99037.00;5021847;28;20030;-78
2021/11/27 10:49:02;;;;;;;33.05;14.95;;;;;;;4.11;100.00;99026.53;5019691;28;20076;-79
2021/11/27 10:51:29;;;;;;;38.60;12.95;;;;;;;3.98;100.00;99031.56;5026941;28;20484;-79
2021/11/27 10:53:58;;;;;;;36.92;12.07;;;;;;;3.78;100.00;99040.81;5026892;28;20028;-79
2021/11/27 10:56:43;;;;;;;30.42;13.48;;;;;;;3.79;100.00;99034.78;5030604;28;20024;-79
2021/11/27 10:59:08;;;;;;;;;;;;;;;3.71;100.00;99042.44;5024449;28;20048;-80
2021/11/27 11:02:08;;;;;;;22.33;7.50;;;;;;;3.60;100.00;99039.69;5026850;28;20270;-79
2021/11/27 11:04:34;;;;;;;18.33;6.88;;;;;;;3.53;100.00;99028.31;5023213;28;20037;-77
2021/11/27 11:07:20;;;;;;;21.70;6.95;;;;;;;3.35;100.00;99031.50;5026025;28;20711;-77
2021/11/27 11:10:07;;;;;;;17.35;5.82;;;;;;;3.18;100.00;99033.81;5031088;28;20397;-78
2021/11/27 11:12:40;;;;;;;16.05;4.93;;;;;;;2.99;100.00;99024.81;5026113;28;20458;-78
2021/11/27 11:15:14;;;;;;;18.10;3.55;;;;;;;2.97;100.00;99031.72;5029684;28;20025;-78
2021/11/27 11:17:40;;;;;;;11.30;3.13;;;;;;;2.90;100.00;99014.25;5030022;28;20029;-78
2021/11/27 11:20:26;;;;;;;23.80;3.88;;;;;;;2.85;100.00;99026.31;5032406;28;20076;-78
2021/11/27 11:22:57;;;;;;;16.48;2.85;;;;;;;2.75;100.00;99019.19;5031243;28;20539;-77
2021/11/27 11:25:23;;;;;;;16.75;3.38;;;;;;;2.67;100.00;99022.53;5030160;28;20025;-78